sensor_id;sensor_type;location;lat;lon;timestamp;pressure;altitude;pressure_sealevel;temperature;humidity
46690;BME280;32423;45.398;10.874;2023-04-10T00:00:40;101493.25;;;14.18;48.57
46690;BME280;32423;45.398;10.874;2023-04-10T00:03:28;101495.19;;;14.26;48.10
46690;BME280;32423;45.398;10.874;2023-04-10T00:06:21;101487.00;;;14.26;47.85
46690;BME280;32423;45.398;10.874;2023-04-10T00:09:13;101482.34;;;14.27;47.67
46690;BME280;32423;45.398;10.874;2023-04-10T00:12:02;101482.66;;;14.25;47.45
46690;BME280;32423;45.398;10.874;2023-04-10T00:14:54;101487.78;;;14.18;47.88
46690;BME280;32423;45.398;10.874;2023-04-10T00:17:46;101477.34;;;14.20;48.38
46690;BME280;32423;45.398;10.874;2023-04-10T00:20:38;101485.53;;;14.11;48.64
46690;BME280;32423;45.398;10.874;2023-04-10T00:23:30;101477.94;;;14.08;48.12
46690;BME280;32423;45.398;10.874;2023-04-10T00:26:23;101472.63;;;13.95;48.88
46690;BME280;32423;45.398;10.874;2023-04-10T00:29:15;101474.41;;;13.91;49.01
46690;BME280;32423;45.398;10.874;2023-04-10T00:32:07;101470.03;;;13.81;49.46
46690;BME280;32423;45.398;10.874;2023-04-10T00:34:56;101473.41;;;13.78;49.64
46690;BME280;32423;45.398;10.874;2023-04-10T00:37:46;101471.47;;;13.79;49.00
46690;BME280;32423;45.398;10.874;2023-04-10T00:40:38;101470.66;;;13.69;49.63
46690;BME280;32423;45.398;10.874;2023-04-10T00:43:30;101479.81;;;13.65;49.55
46690;BME280;32423;45.398;10.874;2023-04-10T00:46:22;101472.50;;;13.52;50.00
46690;BME280;32423;45.398;10.874;2023-04-10T00:49:14;101474.16;;;13.61;49.96
46690;BME280;32423;45.398;10.874;2023-04-10T00:52:04;101474.94;;;13.62;50.09
46690;BME280;32423;45.398;10.874;2023-04-10T00:54:53;101475.50;;;13.81;48.71
46690;BME280;32423;45.398;10.874;2023-04-10T00:57:45;101467.63;;;13.88;47.82
46690;BME280;32423;45.398;10.874;2023-04-10T01:00:37;101464.13;;;13.96;47.17
46690;BME280;32423;45.398;10.874;2023-04-10T01:03:26;101463.00;;;14.06;46.92
46690;BME280;32423;45.398;10.874;2023-04-10T01:06:28;101463.44;;;13.82;47.45
46690;BME280;32423;45.398;10.874;2023-04-10T01:09:23;101465.38;;;13.90;47.31
46690;BME280;32423;45.398;10.874;2023-04-10T01:12:40;101465.19;;;13.78;47.51
46690;BME280;32423;45.398;10.874;2023-04-10T01:15:31;101461.81;;;13.73;47.75
46690;BME280;32423;45.398;10.874;2023-04-10T01:21:36;101462.13;;;13.71;47.69
46690;BME280;32423;45.398;10.874;2023-04-10T01:24:35;101462.53;;;13.47;48.58
46690;BME280;32423;45.398;10.874;2023-04-10T01:27:39;101456.22;;;13.30;49.81
46690;BME280;32423;45.398;10.874;2023-04-10T01:30:34;101458.09;;;13.20;50.23
46690;BME280;32423;45.398;10.874;2023-04-10T01:33:31;101463.09;;;13.27;49.38
46690;BME280;32423;45.398;10.874;2023-04-10T01:36:24;101458.00;;;13.34;49.24
46690;BME280;32423;45.398;10.874;2023-04-10T01:39:14;101461.47;;;13.26;49.33
46690;BME280;32423;45.398;10.874;2023-04-10T01:42:08;101461.69;;;13.30;49.30
46690;BME280;32423;45.398;10.874;2023-04-10T01:45:03;101458.41;;;13.19;49.50
46690;BME280;32423;45.398;10.874;2023-04-10T01:47:57;101459.88;;;13.25;49.46
46690;BME280;32423;45.398;10.874;2023-04-10T01:50:50;101451.69;;;13.25;49.51
46690;BME280;32423;45.398;10.874;2023-04-10T01:53:40;101450.34;;;13.14;50.27
46690;BME280;32423;45.398;10.874;2023-04-10T01:56:33;101446.56;;;13.01;51.04
46690;BME280;32423;45.398;10.874;2023-04-10T01:59:25;101460.03;;;12.98;51.32
46690;BME280;32423;45.398;10.874;2023-04-10T02:02:15;101460.53;;;13.00;51.54
46690;BME280;32423;45.398;10.874;2023-04-10T02:05:07;101460.13;;;12.84;51.78
46690;BME280;32423;45.398;10.874;2023-04-10T02:07:59;101462.97;;;12.79;52.23
46690;BME280;32423;45.398;10.874;2023-04-10T02:10:53;101460.94;;;12.84;51.80
46690;BME280;32423;45.398;10.874;2023-04-10T02:13:45;101463.22;;;12.69;52.45
46690;BME280;32423;45.398;10.874;2023-04-10T02:16:34;101467.75;;;12.73;52.12
46690;BME280;32423;45.398;10.874;2023-04-10T02:19:28;101469.25;;;12.79;51.77
46690;BME280;32423;45.398;10.874;2023-04-10T02:22:22;101462.97;;;12.79;51.59
46690;BME280;32423;45.398;10.874;2023-04-10T02:25:11;101466.69;;;12.61;52.26
46690;BME280;32423;45.398;10.874;2023-04-10T02:28:06;101467.91;;;12.55;52.03
46690;BME280;32423;45.398;10.874;2023-04-10T02:30:58;101462.94;;;12.48;51.76
46690;BME280;32423;45.398;10.874;2023-04-10T02:33:50;101462.13;;;12.48;52.17
46690;BME280;32423;45.398;10.874;2023-04-10T02:36:41;101460.91;;;12.40;52.46
46690;BME280;32423;45.398;10.874;2023-04-10T02:39:33;101468.03;;;12.27;52.37
46690;BME280;32423;45.398;10.874;2023-04-10T02:42:25;101462.88;;;12.26;52.30
46690;BME280;32423;45.398;10.874;2023-04-10T02:45:18;101464.44;;;12.18;52.39
46690;BME280;32423;45.398;10.874;2023-04-10T02:48:11;101463.88;;;12.08;52.63
46690;BME280;32423;45.398;10.874;2023-04-10T02:51:03;101457.19;;;12.00;52.94
46690;BME280;32423;45.398;10.874;2023-04-10T02:53:55;101462.06;;;12.03;52.79
46690;BME280;32423;45.398;10.874;2023-04-10T02:56:49;101467.81;;;12.02;53.08
46690;BME280;32423;45.398;10.874;2023-04-10T02:59:41;101469.94;;;11.91;53.04
46690;BME280;32423;45.398;10.874;2023-04-10T03:02:32;101473.47;;;11.91;53.20
46690;BME280;32423;45.398;10.874;2023-04-10T03:05:25;101473.28;;;11.88;53.25
46690;BME280;32423;45.398;10.874;2023-04-10T03:08:15;101470.63;;;11.69;53.64
46690;BME280;32423;45.398;10.874;2023-04-10T03:11:02;101480.72;;;11.69;53.99
46690;BME280;32423;45.398;10.874;2023-04-10T03:13:54;101475.81;;;11.57;53.78
46690;BME280;32423;45.398;10.874;2023-04-10T03:16:44;101482.28;;;11.47;54.34
46690;BME280;32423;45.398;10.874;2023-04-10T03:19:35;101479.03;;;11.32;54.14
46690;BME280;32423;45.398;10.874;2023-04-10T03:22:26;101483.25;;;11.38;54.09
46690;BME280;32423;45.398;10.874;2023-04-10T03:25:22;101478.94;;;11.50;54.48
46690;BME280;32423;45.398;10.874;2023-04-10T03:28:14;101480.94;;;11.58;54.23
46690;BME280;32423;45.398;10.874;2023-04-10T03:31:05;101482.84;;;11.58;54.61
46690;BME280;32423;45.398;10.874;2023-04-10T03:33:58;101485.28;;;11.46;54.44
46690;BME280;32423;45.398;10.874;2023-04-10T03:36:50;101488.50;;;11.48;54.17
46690;BME280;32423;45.398;10.874;2023-04-10T03:39:40;101492.66;;;11.45;54.23
46690;BME280;32423;45.398;10.874;2023-04-10T03:42:33;101494.56;;;11.45;54.04
46690;BME280;32423;45.398;10.874;2023-04-10T03:45:25;101494.84;;;11.30;54.01
46690;BME280;32423;45.398;10.874;2023-04-10T03:48:14;101498.66;;;11.29;53.73
46690;BME280;32423;45.398;10.874;2023-04-10T03:51:06;101497.75;;;11.06;54.39
46690;BME280;32423;45.398;10.874;2023-04-10T03:53:56;101495.22;;;11.09;54.39
46690;BME280;32423;45.398;10.874;2023-04-10T03:56:48;101486.03;;;11.05;54.86
46690;BME280;32423;45.398;10.874;2023-04-10T03:59:41;101494.38;;;10.95;54.34
46690;BME280;32423;45.398;10.874;2023-04-10T04:02:33;101496.81;;;10.97;54.05
46690;BME280;32423;45.398;10.874;2023-04-10T04:05:29;101498.13;;;10.99;54.09
46690;BME280;32423;45.398;10.874;2023-04-10T04:08:57;101504.00;;;11.06;54.08
46690;BME280;32423;45.398;10.874;2023-04-10T04:12:08;101501.34;;;11.01;54.43
46690;BME280;32423;45.398;10.874;2023-04-10T04:15:18;101501.44;;;10.64;55.04
46690;BME280;32423;45.398;10.874;2023-04-10T04:18:27;101504.06;;;10.69;55.38
46690;BME280;32423;45.398;10.874;2023-04-10T04:21:36;101503.91;;;10.79;54.96
46690;BME280;32423;45.398;10.874;2023-04-10T04:24:28;101500.31;;;10.65;54.46
46690;BME280;32423;45.398;10.874;2023-04-10T04:27:44;101510.44;;;10.78;55.19
46690;BME280;32423;45.398;10.874;2023-04-10T04:30:52;101520.34;;;10.88;54.97
46690;BME280;32423;45.398;10.874;2023-04-10T04:33:48;101511.56;;;10.58;55.49
46690;BME280;32423;45.398;10.874;2023-04-10T04:36:46;101516.56;;;10.70;55.27
46690;BME280;32423;45.398;10.874;2023-04-10T04:39:36;101520.50;;;10.78;54.88
46690;BME280;32423;45.398;10.874;2023-04-10T04:42:50;101523.41;;;10.67;54.94
46690;BME280;32423;45.398;10.874;2023-04-10T04:45:57;101524.34;;;10.58;54.39
46690;BME280;32423;45.398;10.874;2023-04-10T04:49:05;101527.75;;;10.50;55.48
46690;BME280;32423;45.398;10.874;2023-04-10T04:52:14;101524.09;;;10.41;55.45
46690;BME280;32423;45.398;10.874;2023-04-10T04:55:07;101521.44;;;10.36;55.90
46690;BME280;32423;45.398;10.874;2023-04-10T04:58:13;101528.47;;;10.37;55.76
46690;BME280;32423;45.398;10.874;2023-04-10T05:01:22;101534.44;;;10.39;55.55
46690;BME280;32423;45.398;10.874;2023-04-10T05:04:29;101540.81;;;10.29;55.85
46690;BME280;32423;45.398;10.874;2023-04-10T05:07:30;101542.53;;;10.25;56.02
46690;BME280;32423;45.398;10.874;2023-04-10T05:10:34;101544.03;;;10.31;55.95
46690;BME280;32423;45.398;10.874;2023-04-10T05:13:41;101542.94;;;10.32;55.36
46690;BME280;32423;45.398;10.874;2023-04-10T05:16:34;101546.19;;;10.34;55.72
46690;BME280;32423;45.398;10.874;2023-04-10T05:19:44;101548.56;;;10.41;55.24
46690;BME280;32423;45.398;10.874;2023-04-10T05:22:53;101551.84;;;10.38;55.46
46690;BME280;32423;45.398;10.874;2023-04-10T05:26:02;101551.94;;;10.51;55.44
46690;BME280;32423;45.398;10.874;2023-04-10T05:29:10;101557.75;;;10.45;55.50
46690;BME280;32423;45.398;10.874;2023-04-10T05:32:20;101560.97;;;10.47;55.51
46690;BME280;32423;45.398;10.874;2023-04-10T05:35:26;101549.84;;;10.62;55.54
46690;BME280;32423;45.398;10.874;2023-04-10T05:38:20;101559.28;;;10.69;55.63
46690;BME280;32423;45.398;10.874;2023-04-10T05:41:39;101574.03;;;10.82;55.89
46690;BME280;32423;45.398;10.874;2023-04-10T05:44:47;101565.72;;;10.92;55.74
46690;BME280;32423;45.398;10.874;2023-04-10T05:48:03;101572.84;;;11.07;56.99
46690;BME280;32423;45.398;10.874;2023-04-10T05:51:10;101571.53;;;11.18;55.86
46690;BME280;32423;45.398;10.874;2023-04-10T05:54:31;101579.06;;;11.40;56.05
46690;BME280;32423;45.398;10.874;2023-04-10T05:57:43;101583.03;;;11.47;55.83
46690;BME280;32423;45.398;10.874;2023-04-10T06:00:59;101588.50;;;11.61;55.80
46690;BME280;32423;45.398;10.874;2023-04-10T06:04:04;101591.44;;;11.65;55.88
46690;BME280;32423;45.398;10.874;2023-04-10T06:06:56;101594.38;;;11.68;55.71
46690;BME280;32423;45.398;10.874;2023-04-10T06:09:48;101598.34;;;11.89;55.83
46690;BME280;32423;45.398;10.874;2023-04-10T06:12:40;101594.41;;;11.95;54.54
46690;BME280;32423;45.398;10.874;2023-04-10T06:15:32;101605.31;;;12.09;54.09
46690;BME280;32423;45.398;10.874;2023-04-10T06:18:25;101605.91;;;12.20;54.18
46690;BME280;32423;45.398;10.874;2023-04-10T06:21:16;101607.72;;;12.24;55.22
46690;BME280;32423;45.398;10.874;2023-04-10T06:24:06;101613.47;;;12.36;54.68
46690;BME280;32423;45.398;10.874;2023-04-10T06:26:56;101613.97;;;12.52;54.13
46690;BME280;32423;45.398;10.874;2023-04-10T06:29:47;101620.19;;;12.66;53.51
46690;BME280;32423;45.398;10.874;2023-04-10T06:32:40;101612.59;;;12.77;50.61
46690;BME280;32423;45.398;10.874;2023-04-10T06:35:33;101610.94;;;12.90;50.30
46690;BME280;32423;45.398;10.874;2023-04-10T06:38:25;101612.69;;;13.08;50.06
46690;BME280;32423;45.398;10.874;2023-04-10T06:41:17;101614.09;;;13.19;49.70
46690;BME280;32423;45.398;10.874;2023-04-10T06:44:13;101602.47;;;13.36;48.28
46690;BME280;32423;45.398;10.874;2023-04-10T06:47:05;101605.84;;;13.41;46.64
46690;BME280;32423;45.398;10.874;2023-04-10T06:49:57;101612.06;;;13.55;46.91
46690;BME280;32423;45.398;10.874;2023-04-10T06:52:49;101610.97;;;13.96;45.64
46690;BME280;32423;45.398;10.874;2023-04-10T06:55:41;101609.47;;;14.29;44.61
46690;BME280;32423;45.398;10.874;2023-04-10T06:58:33;101618.94;;;14.97;47.52
46690;BME280;32423;45.398;10.874;2023-04-10T07:01:25;101606.03;;;15.23;42.41
46690;BME280;32423;45.398;10.874;2023-04-10T07:04:17;101608.44;;;15.16;44.51
46690;BME280;32423;45.398;10.874;2023-04-10T07:07:09;101613.00;;;15.76;45.02
46690;BME280;32423;45.398;10.874;2023-04-10T07:10:01;101611.44;;;16.04;44.73
46690;BME280;32423;45.398;10.874;2023-04-10T07:12:53;101603.06;;;16.01;45.32
46690;BME280;32423;45.398;10.874;2023-04-10T07:15:45;101600.78;;;15.65;42.94
46690;BME280;32423;45.398;10.874;2023-04-10T07:18:37;101599.88;;;15.90;41.77
46690;BME280;32423;45.398;10.874;2023-04-10T07:21:29;101595.31;;;16.03;44.16
46690;BME280;32423;45.398;10.874;2023-04-10T07:24:21;101596.56;;;16.14;43.93
46690;BME280;32423;45.398;10.874;2023-04-10T07:27:13;101598.84;;;16.33;41.48
46690;BME280;32423;45.398;10.874;2023-04-10T07:30:05;101601.00;;;16.77;43.94
46690;BME280;32423;45.398;10.874;2023-04-10T07:32:57;101602.78;;;17.15;43.73
46690;BME280;32423;45.398;10.874;2023-04-10T07:35:46;101565.28;;;16.77;41.93
46690;BME280;32423;45.398;10.874;2023-04-10T07:38:38;101591.88;;;16.85;37.72
46690;BME280;32423;45.398;10.874;2023-04-10T07:41:28;101594.19;;;16.04;38.33
46690;BME280;32423;45.398;10.874;2023-04-10T07:44:20;101604.72;;;16.22;42.13
46690;BME280;32423;45.398;10.874;2023-04-10T07:47:10;101608.53;;;16.01;39.63
46690;BME280;32423;45.398;10.874;2023-04-10T07:49:57;101602.28;;;15.36;41.29
46690;BME280;32423;45.398;10.874;2023-04-10T07:52:48;101604.13;;;15.70;40.03
46690;BME280;32423;45.398;10.874;2023-04-10T07:55:44;101600.28;;;16.39;38.81
46690;BME280;32423;45.398;10.874;2023-04-10T07:58:36;101601.78;;;15.98;38.76
46690;BME280;32423;45.398;10.874;2023-04-10T08:01:28;101612.13;;;16.51;39.17
46690;BME280;32423;45.398;10.874;2023-04-10T08:04:20;101605.16;;;16.83;38.15
46690;BME280;32423;45.398;10.874;2023-04-10T08:07:12;101608.91;;;16.29;37.20
46690;BME280;32423;45.398;10.874;2023-04-10T08:10:04;101605.84;;;15.92;36.90
46690;BME280;32423;45.398;10.874;2023-04-10T08:12:56;101601.78;;;16.27;36.97
46690;BME280;32423;45.398;10.874;2023-04-10T08:15:45;101604.66;;;16.81;35.49
46690;BME280;32423;45.398;10.874;2023-04-10T08:18:37;101615.81;;;16.64;35.92
46690;BME280;32423;45.398;10.874;2023-04-10T08:21:29;101608.97;;;16.70;36.01
46690;BME280;32423;45.398;10.874;2023-04-10T08:24:21;101607.63;;;16.97;36.19
46690;BME280;32423;45.398;10.874;2023-04-10T08:27:08;101598.41;;;17.46;36.70
46690;BME280;32423;45.398;10.874;2023-04-10T08:30:00;101600.44;;;17.37;36.28
46690;BME280;32423;45.398;10.874;2023-04-10T08:32:52;101606.38;;;17.60;34.51
46690;BME280;32423;45.398;10.874;2023-04-10T08:35:44;101612.06;;;17.55;33.76
46690;BME280;32423;45.398;10.874;2023-04-10T08:38:37;101609.50;;;17.38;33.32
46690;BME280;32423;45.398;10.874;2023-04-10T08:41:29;101604.91;;;17.30;33.39
46690;BME280;32423;45.398;10.874;2023-04-10T08:44:18;101607.59;;;17.18;33.54
46690;BME280;32423;45.398;10.874;2023-04-10T08:47:10;101610.31;;;17.05;33.41
46690;BME280;32423;45.398;10.874;2023-04-10T08:50:01;101602.88;;;17.06;33.61
46690;BME280;32423;45.398;10.874;2023-04-10T08:52:55;101604.13;;;17.08;33.55
46690;BME280;32423;45.398;10.874;2023-04-10T08:55:48;101600.44;;;17.04;34.03
46690;BME280;32423;45.398;10.874;2023-04-10T08:58:38;101600.53;;;16.96;33.83
46690;BME280;32423;45.398;10.874;2023-04-10T09:01:28;101597.31;;;16.94;33.70
46690;BME280;32423;45.398;10.874;2023-04-10T09:04:20;101605.06;;;16.92;34.05
46690;BME280;32423;45.398;10.874;2023-04-10T09:07:12;101603.41;;;16.99;34.39
46690;BME280;32423;45.398;10.874;2023-04-10T09:10:04;101603.06;;;17.01;34.04
46690;BME280;32423;45.398;10.874;2023-04-10T09:12:56;101602.59;;;16.99;33.47
46690;BME280;32423;45.398;10.874;2023-04-10T09:15:58;101603.34;;;16.87;33.63
46690;BME280;32423;45.398;10.874;2023-04-10T09:18:53;101595.97;;;16.79;33.83
46690;BME280;32423;45.398;10.874;2023-04-10T09:21:43;101602.13;;;16.97;33.74
46690;BME280;32423;45.398;10.874;2023-04-10T09:24:40;101596.56;;;17.05;33.70
46690;BME280;32423;45.398;10.874;2023-04-10T09:27:33;101588.56;;;17.13;33.94
46690;BME280;32423;45.398;10.874;2023-04-10T09:30:31;101594.81;;;17.22;33.84
46690;BME280;32423;45.398;10.874;2023-04-10T09:33:26;101598.22;;;17.19;33.22
46690;BME280;32423;45.398;10.874;2023-04-10T09:36:19;101590.44;;;17.21;33.41
46690;BME280;32423;45.398;10.874;2023-04-10T09:39:11;101590.38;;;17.41;33.39
46690;BME280;32423;45.398;10.874;2023-04-10T09:42:01;101593.53;;;17.64;32.54
46690;BME280;32423;45.398;10.874;2023-04-10T09:44:52;101598.50;;;17.71;32.75
46690;BME280;32423;45.398;10.874;2023-04-10T09:47:45;101590.56;;;17.69;32.63
46690;BME280;32423;45.398;10.874;2023-04-10T09:50:51;101586.44;;;17.63;32.31
46690;BME280;32423;45.398;10.874;2023-04-10T09:53:49;101586.44;;;17.63;32.31
46690;BME280;32423;45.398;10.874;2023-04-10T09:56:41;101587.50;;;17.71;32.71
46690;BME280;32423;45.398;10.874;2023-04-10T09:59:33;101584.88;;;17.86;32.63
46690;BME280;32423;45.398;10.874;2023-04-10T10:02:25;101583.00;;;17.78;32.56
46690;BME280;32423;45.398;10.874;2023-04-10T10:05:19;101578.91;;;17.84;32.46
46690;BME280;32423;45.398;10.874;2023-04-10T10:08:11;101572.81;;;17.79;32.95
46690;BME280;32423;45.398;10.874;2023-04-10T10:11:03;101571.78;;;17.71;32.89
46690;BME280;32423;45.398;10.874;2023-04-10T10:13:56;101561.59;;;17.84;32.21
46690;BME280;32423;45.398;10.874;2023-04-10T10:16:49;101564.47;;;17.87;32.25
46690;BME280;32423;45.398;10.874;2023-04-10T10:19:42;101557.22;;;17.95;32.35
46690;BME280;32423;45.398;10.874;2023-04-10T10:22:35;101561.25;;;17.85;32.32
46690;BME280;32423;45.398;10.874;2023-04-10T10:25:27;101553.56;;;17.91;32.54
46690;BME280;32423;45.398;10.874;2023-04-10T10:28:20;101552.06;;;18.06;32.14
46690;BME280;32423;45.398;10.874;2023-04-10T10:31:13;101546.09;;;18.16;31.93
46690;BME280;32423;45.398;10.874;2023-04-10T10:34:03;101558.47;;;18.22;31.52
46690;BME280;32423;45.398;10.874;2023-04-10T10:36:55;101552.16;;;18.21;31.61
46690;BME280;32423;45.398;10.874;2023-04-10T10:39:58;101553.41;;;18.24;31.70
46690;BME280;32423;45.398;10.874;2023-04-10T10:42:52;101547.91;;;18.24;31.92
46690;BME280;32423;45.398;10.874;2023-04-10T10:45:59;101544.47;;;18.15;32.08
46690;BME280;32423;45.398;10.874;2023-04-10T10:48:59;101539.88;;;18.31;31.70
46690;BME280;32423;45.398;10.874;2023-04-10T10:51:51;101540.34;;;18.33;31.85
46690;BME280;32423;45.398;10.874;2023-04-10T10:54:43;101528.38;;;18.41;31.65
46690;BME280;32423;45.398;10.874;2023-04-10T10:57:48;101530.00;;;18.42;31.36
46690;BME280;32423;45.398;10.874;2023-04-10T11:03:45;101524.47;;;18.42;31.52
46690;BME280;32423;45.398;10.874;2023-04-10T11:06:49;101526.66;;;18.49;31.19
46690;BME280;32423;45.398;10.874;2023-04-10T11:09:57;101516.22;;;18.82;30.46
46690;BME280;32423;45.398;10.874;2023-04-10T11:13:32;101518.75;;;19.03;30.15
46690;BME280;32423;45.398;10.874;2023-04-10T11:15:58;101511.81;;;18.93;29.99
46690;BME280;32423;45.398;10.874;2023-04-10T11:22:02;101509.09;;;19.09;29.07
46690;BME280;32423;45.398;10.874;2023-04-10T11:27:45;101500.31;;;18.91;30.00
46690;BME280;32423;45.398;10.874;2023-04-10T11:30:40;101491.44;;;18.98;29.79
46690;BME280;32423;45.398;10.874;2023-04-10T11:33:32;101479.81;;;19.04;30.27
46690;BME280;32423;45.398;10.874;2023-04-10T11:36:25;101474.81;;;19.10;30.50
46690;BME280;32423;45.398;10.874;2023-04-10T11:39:17;101473.31;;;19.12;30.72
46690;BME280;32423;45.398;10.874;2023-04-10T11:42:09;101480.72;;;19.08;30.28
46690;BME280;32423;45.398;10.874;2023-04-10T11:44:58;101479.78;;;18.89;30.17
46690;BME280;32423;45.398;10.874;2023-04-10T11:47:53;101479.97;;;18.96;30.64
46690;BME280;32423;45.398;10.874;2023-04-10T11:50:43;101464.34;;;19.15;29.36
46690;BME280;32423;45.398;10.874;2023-04-10T11:53:35;101466.19;;;18.96;29.81
46690;BME280;32423;45.398;10.874;2023-04-10T11:56:27;101467.47;;;19.14;29.54
46690;BME280;32423;45.398;10.874;2023-04-10T11:59:18;101462.38;;;19.16;29.27
46690;BME280;32423;45.398;10.874;2023-04-10T12:02:10;101461.84;;;19.26;28.42
46690;BME280;32423;45.398;10.874;2023-04-10T12:05:03;101467.72;;;19.40;29.04
46690;BME280;32423;45.398;10.874;2023-04-10T12:07:55;101470.25;;;19.45;28.48
46690;BME280;32423;45.398;10.874;2023-04-10T12:10:47;101465.34;;;19.39;28.53
46690;BME280;32423;45.398;10.874;2023-04-10T12:13:39;101464.06;;;19.36;29.01
46690;BME280;32423;45.398;10.874;2023-04-10T12:16:31;101456.06;;;19.31;28.59
46690;BME280;32423;45.398;10.874;2023-04-10T12:19:23;101448.84;;;19.42;29.14
46690;BME280;32423;45.398;10.874;2023-04-10T12:22:12;101454.31;;;19.54;28.93
46690;BME280;32423;45.398;10.874;2023-04-10T12:25:04;101450.69;;;19.50;28.73
46690;BME280;32423;45.398;10.874;2023-04-10T12:27:56;101440.81;;;19.49;28.73
46690;BME280;32423;45.398;10.874;2023-04-10T12:30:48;101443.44;;;19.61;28.59
46690;BME280;32423;45.398;10.874;2023-04-10T12:33:41;101443.06;;;19.79;28.83
46690;BME280;32423;45.398;10.874;2023-04-10T12:36:34;101440.75;;;19.81;28.79
46690;BME280;32423;45.398;10.874;2023-04-10T12:39:24;101436.09;;;19.85;28.49
46690;BME280;32423;45.398;10.874;2023-04-10T12:42:14;101433.69;;;19.83;28.90
46690;BME280;32423;45.398;10.874;2023-04-10T12:45:04;101436.09;;;19.85;28.87
46690;BME280;32423;45.398;10.874;2023-04-10T12:47:56;101437.59;;;19.82;28.99
46690;BME280;32423;45.398;10.874;2023-04-10T12:50:48;101430.66;;;19.88;28.41
46690;BME280;32423;45.398;10.874;2023-04-10T12:53:44;101432.41;;;19.96;28.44
46690;BME280;32423;45.398;10.874;2023-04-10T12:56:43;101415.69;;;19.89;28.32
46690;BME280;32423;45.398;10.874;2023-04-10T12:59:35;101414.38;;;19.83;28.61
46690;BME280;32423;45.398;10.874;2023-04-10T13:02:27;101414.81;;;19.85;28.72
46690;BME280;32423;45.398;10.874;2023-04-10T13:05:19;101415.81;;;19.96;28.04
46690;BME280;32423;45.398;10.874;2023-04-10T13:08:11;101416.00;;;20.03;28.25
46690;BME280;32423;45.398;10.874;2023-04-10T13:11:03;101421.81;;;20.18;27.95
46690;BME280;32423;45.398;10.874;2023-04-10T13:13:55;101418.97;;;20.14;28.43
46690;BME280;32423;45.398;10.874;2023-04-10T13:16:44;101414.31;;;20.18;28.13
46690;BME280;32423;45.398;10.874;2023-04-10T13:19:36;101416.38;;;20.21;28.00
46690;BME280;32423;45.398;10.874;2023-04-10T13:22:28;101413.75;;;20.09;27.63
46690;BME280;32423;45.398;10.874;2023-04-10T13:25:20;101409.91;;;20.14;27.99
46690;BME280;32423;45.398;10.874;2023-04-10T13:28:12;101412.16;;;20.08;28.42
46690;BME280;32423;45.398;10.874;2023-04-10T13:31:04;101401.84;;;20.05;28.02
46690;BME280;32423;45.398;10.874;2023-04-10T13:33:55;101401.31;;;20.19;28.72
46690;BME280;32423;45.398;10.874;2023-04-10T13:36:47;101401.03;;;20.24;28.58
46690;BME280;32423;45.398;10.874;2023-04-10T13:39:39;101393.09;;;20.22;28.14
46690;BME280;32423;45.398;10.874;2023-04-10T13:42:31;101395.72;;;20.15;28.14
46690;BME280;32423;45.398;10.874;2023-04-10T13:45:23;101396.94;;;20.18;28.31
46690;BME280;32423;45.398;10.874;2023-04-10T13:48:15;101386.41;;;20.23;28.29
46690;BME280;32423;45.398;10.874;2023-04-10T13:51:04;101388.59;;;20.14;28.78
46690;BME280;32423;45.398;10.874;2023-04-10T13:53:56;101379.28;;;20.22;28.20
46690;BME280;32423;45.398;10.874;2023-04-10T13:56:46;101378.44;;;20.18;27.78
46690;BME280;32423;45.398;10.874;2023-04-10T13:59:38;101375.88;;;20.10;28.16
46690;BME280;32423;45.398;10.874;2023-04-10T14:02:30;101374.50;;;20.00;27.87
46690;BME280;32423;45.398;10.874;2023-04-10T14:05:22;101370.44;;;20.13;27.81
46690;BME280;32423;45.398;10.874;2023-04-10T14:08:11;101367.09;;;20.23;27.41
46690;BME280;32423;45.398;10.874;2023-04-10T14:11:03;101364.19;;;20.16;27.27
46690;BME280;32423;45.398;10.874;2023-04-10T14:13:53;101360.69;;;20.19;27.37
46690;BME280;32423;45.398;10.874;2023-04-10T14:16:40;101361.00;;;20.14;26.94
46690;BME280;32423;45.398;10.874;2023-04-10T14:19:32;101356.78;;;20.20;27.02
46690;BME280;32423;45.398;10.874;2023-04-10T14:22:23;101357.47;;;20.17;27.06
46690;BME280;32423;45.398;10.874;2023-04-10T14:25:13;101354.50;;;20.06;27.53
46690;BME280;32423;45.398;10.874;2023-04-10T14:28:05;101346.44;;;19.98;27.94
46690;BME280;32423;45.398;10.874;2023-04-10T14:30:56;101348.56;;;19.85;28.21
46690;BME280;32423;45.398;10.874;2023-04-10T14:33:46;101344.56;;;19.83;28.60
46690;BME280;32423;45.398;10.874;2023-04-10T14:36:38;101334.47;;;19.90;28.34
46690;BME280;32423;45.398;10.874;2023-04-10T14:39:30;101333.81;;;19.97;27.77
46690;BME280;32423;45.398;10.874;2023-04-10T14:42:22;101329.03;;;19.94;27.89
46690;BME280;32423;45.398;10.874;2023-04-10T14:45:17;101321.09;;;19.92;28.04
46690;BME280;32423;45.398;10.874;2023-04-10T14:48:08;101322.13;;;19.84;28.71
46690;BME280;32423;45.398;10.874;2023-04-10T14:51:00;101325.69;;;19.85;28.57
46690;BME280;32423;45.398;10.874;2023-04-10T14:53:52;101320.97;;;19.85;28.43
46690;BME280;32423;45.398;10.874;2023-04-10T14:56:44;101310.00;;;19.89;28.05
46690;BME280;32423;45.398;10.874;2023-04-10T14:59:33;101307.53;;;19.84;27.96
46690;BME280;32423;45.398;10.874;2023-04-10T15:02:25;101309.13;;;19.85;28.51
46690;BME280;32423;45.398;10.874;2023-04-10T15:05:17;101312.09;;;19.76;28.49
46690;BME280;32423;45.398;10.874;2023-04-10T15:08:09;101308.38;;;19.69;29.23
46690;BME280;32423;45.398;10.874;2023-04-10T15:11:01;101301.03;;;19.57;29.46